Burkhart, Kentucky
Current Conditions -  °F | °C
As of 11:53 AM on Friday 19 Dec 2014 (Local Time) from KJKL Reporting Station
Clear Clear  
Wind Chill:   Ceiling: Unl
Heat Index:   Visibility: 10mi
Dew Point: -4°   Wind: 3mph
Humidity: 62%   Direction: 30°NNE
Pressure: 30.23"   Gusts: NA
Location:  37.7524°N, 83.5047°W
Report Text: KJKL 191653Z AUTO 03003KT 10SM CLR 02/M04 A3023 RMK AO2 SLP245 T00221044
Loading
Personal Weather Stations






























Interactive Weather Map New forecast layout! Learn more

10-Day Weather Forecast

Advertisements
Track Severe Weather on mobile